11 de agosto de 2022

Hora Código Clima Temp. Visibilidade Tecto Vento METAR/SPECI
01:00
V
25 °C 10 km+ - 260° 260° 6 kt METAR LFBY 102300Z AUTO 26006KT 230V300 9999 // ////// 25/18 Q1013
00:30
V
25 °C 9 km - 240° 240° 5 kt METAR LFBY 102230Z AUTO 24005KT 9000 // ////// 25/18 Q1013
00:00
V
25 °C 9 km - 240° 240° 3 kt METAR LFBY 102200Z AUTO 24003KT 9000 // ////// 25/15 Q1013

10 de agosto de 2022

Hora Código Clima Temp. Visibilidade Tecto Vento METAR/SPECI
23:30
V
25 °C 9 km - 140° 140° 2 kt METAR LFBY 102130Z AUTO 14002KT 9000 // ////// 25/17 Q1012
23:00
V
26 °C 9 km - 200° 200° 4 kt METAR LFBY 102100Z AUTO 20004KT 9000 // ////// 26/15 Q1013
22:30
V
28 °C 9 km - 200° 200° 3 kt METAR LFBY 102030Z AUTO 20003KT 170V260 9000 // ////// 28/15 Q1012
22:00
V
31 °C 8 km - 030° 030° 3 kt METAR LFBY 102000Z AUTO 03003KT 360V060 8000 // ////// 31/12 Q1012
21:30
M
32 °C 7 km - Var Var 2 kt METAR LFBY 101930Z AUTO VRB02KT 7000 // ////// 32/13 Q1012
21:00
V
33 °C 8 km - Var Var 2 kt METAR LFBY 101900Z AUTO VRB02KT 8000 // ////// 33/12 Q1012
20:30
V
34 °C 9 km - 310° 310° 3 kt METAR LFBY 101830Z AUTO 31003KT 9000 // ////// 34/12 Q1012
20:00
V
35 °C 10 km+ - 280° 280° 3 kt METAR LFBY 101800Z AUTO 28003KT 240V310 9999 // ////// 35/14 Q1012
19:30
V
36 °C 10 km+ - 330° 330° 3 kt METAR LFBY 101730Z AUTO 33003KT 270V010 9999 // ////// 36/13 Q1012
19:00
V
38 °C 10 km+ - 180° 180° 3 kt METAR LFBY 101700Z AUTO 18003KT 130V210 9999 // ////// 38/12 Q1012
18:30
V
37 °C 10 km+ - Var Var 2 kt METAR LFBY 101630Z AUTO VRB02KT 9999 // ////// 37/12 Q1012
18:00
V
38 °C 10 km+ - Var Var 3 kt METAR LFBY 101600Z AUTO VRB03KT 9999 // ////// 38/12 Q1012
17:30
V
39 °C 10 km+ - Var Var 3 kt METAR LFBY 101530Z AUTO VRB03KT 9999 // ////// 39/12 Q1012
17:00
V
39 °C 10 km+ - Var Var 3 kt METAR LFBY 101500Z AUTO VRB03KT 9999 // ////// 39/12 Q1012
16:30
V
39 °C 10 km+ - 250° 250° 4 kt METAR LFBY 101430Z AUTO 25004KT 200V310 9999 // ////// 39/12 Q1013
16:00
V
38 °C 10 km+ - Var Var 3 kt METAR LFBY 101400Z AUTO VRB03KT 9999 // ////// 38/12 Q1013
15:30
V
38 °C 10 km+ - 220° 220° 4 kt METAR LFBY 101330Z AUTO 22004KT 150V300 9999 // ////// 38/13 Q1013
15:00
V
38 °C 10 km+ - Var Var 3 kt METAR LFBY 101300Z AUTO VRB03KT 9999 // ////// 38/12 Q1014
14:30
V
37 °C 10 km+ - 180° 180° 6 kt METAR LFBY 101230Z AUTO 18006KT 140V230 9999 // ////// 37/12 Q1014
14:00
V
37 °C 10 km+ - 110° 110° 6 kt METAR LFBY 101200Z AUTO 11006KT 070V160 9999 // ////// 37/11 Q1014
13:30
V
37 °C 10 km+ - 130° 130° 7 kt METAR LFBY 101130Z AUTO 13007KT 090V180 9999 // ////// 37/11 Q1014
13:00
V
36 °C 10 km+ - 140° 140° 4 kt METAR LFBY 101100Z AUTO 14004KT 080V210 9999 // ////// 36/14 Q1015
12:30
V
34 °C 10 km+ - Var Var 4 kt METAR LFBY 101030Z AUTO VRB04KT 9999 // ////// 34/16 Q1015
12:00
V
33 °C 10 km+ - Var Var 3 kt METAR LFBY 101000Z AUTO VRB03KT 9999 // ////// 33/15 Q1015
11:30
V
31 °C 10 km+ - 110° 110° 4 kt METAR LFBY 100930Z AUTO 11004KT 030V190 9999 // ////// 31/18 Q1015
11:00
V
29 °C 10 km+ - 080° 080° 3 kt METAR LFBY 100900Z AUTO 08003KT 020V170 9999 // ////// 29/19 Q1015
10:30
V
27 °C 10 km+ - 160° 160° 4 kt METAR LFBY 100830Z AUTO 16004KT 120V210 9999 // ////// 27/18 Q1016
10:00
V
26 °C 10 km+ - 110° 110° 3 kt METAR LFBY 100800Z AUTO 11003KT 080V160 9999 // ////// 26/19 Q1015
09:30
V
24 °C 10 km+ - 100° 100° 3 kt METAR LFBY 100730Z AUTO 10003KT 070V150 9999 // ////// 24/19 Q1015
09:00
V
22 °C 10 km+ - Var Var 3 kt METAR LFBY 100700Z AUTO VRB03KT 9999 // ////// 22/19 Q1016
08:30
V
20 °C 9 km - Var Var 3 kt METAR LFBY 100630Z AUTO VRB03KT 9000 // ////// 20/19 Q1016
08:00
V
19 °C 9 km - 110° 110° 2 kt METAR LFBY 100600Z AUTO 11002KT 9000 // ////// 19/18 Q1016
07:30
V
18 °C 10 km+ - Var Var 2 kt METAR LFBY 100530Z AUTO VRB02KT 9999 // ////// 18/17 Q1016
07:00
V
18 °C 10 km+ - Var Var 2 kt METAR LFBY 100500Z AUTO VRB02KT 9999 // ////// 18/17 Q1016
06:30
V
19 °C 9 km - Var Var 3 kt METAR LFBY 100430Z AUTO VRB03KT 9000 // ////// 19/18 Q1015
06:00
V
18 °C 10 km+ - 100° 100° 2 kt METAR LFBY 100400Z AUTO 10002KT 9999 // ////// 18/17 Q1015
05:30
V
19 °C 10 km+ - 160° 160° 2 kt METAR LFBY 100330Z AUTO 16002KT 9999 // ////// 19/17 Q1015
05:00
V
19 °C 10 km+ - Var Var 2 kt METAR LFBY 100300Z AUTO VRB02KT 9999 // ////// 19/18 Q1016
04:30
V
19 °C 10 km+ - Var Var 2 kt METAR LFBY 100230Z AUTO VRB02KT 9999 // ////// 19/18 Q1015
04:00
V
19 °C 10 km+ - 120° 120° 2 kt METAR LFBY 100200Z AUTO 12002KT 9999 // ////// 19/18 Q1016
03:30
V
20 °C 10 km+ - Var Var 1 kt METAR LFBY 100130Z AUTO VRB01KT 9999 // ////// 20/19 Q1016
03:00
V
20 °C 9 km - Var Var 1 kt METAR LFBY 100100Z AUTO VRB01KT 9000 // ////// 20/19 Q1016
02:30
V
21 °C 10 km+ - Var Var 3 kt METAR LFBY 100030Z AUTO VRB03KT 9999 // ////// 21/19 Q1016
02:00
V
21 °C 10 km+ - 200° 200° 4 kt METAR LFBY 100000Z AUTO 20004KT 160V240 9999 // ////// 21/19 Q1016
01:30
V
21 °C 10 km+ - 190° 190° 3 kt METAR LFBY 092330Z AUTO 19003KT 160V240 9999 // ////// 21/18 Q1016
01:00
V
21 °C 10 km+ - Var Var 2 kt METAR LFBY 092300Z AUTO VRB02KT 9999 // ////// 21/17 Q1016
00:30
V
21 °C 10 km+ - 220° 220° 4 kt METAR LFBY 092230Z AUTO 22004KT 180V280 9999 // ////// 21/16 Q1016
00:00
V
23 °C 10 km+ - 330° 330° 3 kt METAR LFBY 092200Z AUTO 33003KT 9999 // ////// 23/16 Q1016

9 de agosto de 2022

Hora Código Clima Temp. Visibilidade Tecto Vento METAR/SPECI
23:30
V
24 °C 10 km+ - Var Var 3 kt METAR LFBY 092130Z AUTO VRB03KT 9999 // ////// 24/16 Q1016
23:00
V
25 °C 10 km+ - Var Var 2 kt METAR LFBY 092100Z AUTO VRB02KT 9999 // ////// 25/16 Q1016
22:30
V
26 °C 10 km+ - Var Var 3 kt METAR LFBY 092030Z AUTO VRB03KT 9999 // ////// 26/16 Q1016
22:00
V
27 °C 10 km+ - Var Var 3 kt METAR LFBY 092000Z AUTO VRB03KT 9999 // ////// 27/15 Q1016
21:30
V
28 °C 10 km+ - 300° 300° 3 kt METAR LFBY 091930Z AUTO 30003KT 9999 // ////// 28/15 Q1016
21:00
V
30 °C 10 km+ - 270° 270° 3 kt METAR LFBY 091900Z AUTO 27003KT 240V300 9999 // ////// 30/15 Q1016
20:30
V
31 °C 10 km+ - 300° 300° 4 kt METAR LFBY 091830Z AUTO 30004KT 260V340 9999 // ////// 31/14 Q1016
20:00
V
32 °C 10 km+ - 290° 290° 5 kt METAR LFBY 091800Z AUTO 29005KT 260V320 9999 // ////// 32/15 Q1016
19:30
V
33 °C 10 km+ - 290° 290° 6 kt METAR LFBY 091730Z AUTO 29006KT 260V330 9999 // ////// 33/18 Q1016
19:00
V
33 °C 10 km+ - 280° 280° 6 kt METAR LFBY 091700Z AUTO 28006KT 230V340 9999 // ////// 33/18 Q1016
18:30
V
35 °C 10 km+ - Var Var 2 kt METAR LFBY 091630Z AUTO VRB02KT 9999 // ////// 35/13 Q1016
18:00
V
35 °C 10 km+ - Var Var 2 kt METAR LFBY 091600Z AUTO VRB02KT 9999 // ////// 35/14 Q1016
17:30
V
34 °C 10 km+ - Var Var 3 kt METAR LFBY 091530Z AUTO VRB03KT 9999 // ////// 34/16 Q1016
17:00
V
32 °C 10 km+ - 280° 280° 4 kt METAR LFBY 091500Z AUTO 28004KT 250V340 9999 // ////// 32/18 Q1016
16:30
V
30 °C 10 km+ - 270° 270° 7 kt METAR LFBY 091430Z AUTO 27007KT 230V300 9999 // ////// 30/18 Q1017
16:00
V
31 °C 10 km+ - 270° 270° 7 kt METAR LFBY 091400Z AUTO 27007KT 250V320 9999 // ////// 31/19 Q1017
15:30
V
31 °C 10 km+ - 240° 240° 5 kt METAR LFBY 091330Z AUTO 24005KT 120V280 9999 // ////// 31/18 Q1017
15:00
V
33 °C 10 km+ - Var Var 3 kt METAR LFBY 091300Z AUTO VRB03KT 9999 // ////// 33/18 Q1018
14:30
V
31 °C 10 km+ - 250° 250° 6 kt METAR LFBY 091230Z AUTO 25006KT 210V290 9999 // ////// 31/19 Q1018
14:00
V
30 °C 10 km+ - 290° 290° 4 kt METAR LFBY 091200Z AUTO 29004KT 230V360 9999 // ////// 30/19 Q1018
13:30
V
28 °C 10 km+ - 260° 260° 5 kt METAR LFBY 091130Z AUTO 26005KT 200V330 9999 // ////// 28/20 Q1019
13:00
V
27 °C 10 km+ - 280° 280° 4 kt METAR LFBY 091100Z AUTO 28004KT 220V340 9999 // ////// 27/20 Q1019
12:30
V
26 °C 10 km+ - 230° 230° 7 kt METAR LFBY 091030Z AUTO 23007KT 190V290 9999 // ////// 26/20 Q1019
12:00
V
27 °C 10 km+ - 190° 190° 6 kt METAR LFBY 091000Z AUTO 19006KT 150V240 9999 // ////// 27/19 Q1019
11:30
V
24 °C 10 km+ - 210° 210° 9 kt METAR LFBY 090930Z AUTO 21009KT 9999 // ////// 24/19 Q1019
11:00
V
24 °C 10 km+ - 170° 170° 6 kt METAR LFBY 090900Z AUTO 17006KT 140V230 9999 // ////// 24/20 Q1018
10:30
V
24 °C 10 km+ - 020° 020° 4 kt METAR LFBY 090830Z AUTO 02004KT 330V090 9999 // ////// 24/20 Q1018
10:00
V
24 °C 10 km+ - 010° 010° 3 kt METAR LFBY 090800Z AUTO 01003KT 300V040 9999 // ////// 24/20 Q1018
09:30
V
22 °C 10 km+ - Var Var 1 kt METAR LFBY 090730Z AUTO VRB01KT 9999 // ////// 22/20 Q1018
09:00
V
22 °C 10 km+ - Var Var 2 kt METAR LFBY 090700Z AUTO VRB02KT 9999 // ////// 22/20 Q1018
08:30
V
21 °C 10 km+ - Var Var 2 kt METAR LFBY 090630Z AUTO VRB02KT 9999 // ////// 21/20 Q1018
08:00
V
20 °C 8 km - 190° 190° 3 kt METAR LFBY 090600Z AUTO 19003KT 8000 // ////// 20/20 Q1018
07:30
V
20 °C 8 km - 180° 180° 3 kt METAR LFBY 090530Z AUTO 18003KT 8000 // ////// 20/19 Q1018
07:00
V
20 °C 8 km - 200° 200° 3 kt METAR LFBY 090500Z AUTO 20003KT 8000 // ////// 20/19 Q1018
06:30
V
21 °C 8 km - Var Var 2 kt METAR LFBY 090430Z AUTO VRB02KT 8000 // ////// 21/20 Q1018
06:00
V
21 °C 8 km - 220° 220° 3 kt METAR LFBY 090400Z AUTO 22003KT 200V270 8000 // ////// 21/20 Q1018
05:30
V
21 °C 9 km - 230° 230° 4 kt METAR LFBY 090330Z AUTO 23004KT 200V270 9000 // ////// 21/20 Q1018
05:00
V
20 °C 10 km+ - 210° 210° 4 kt METAR LFBY 090300Z AUTO 21004KT 170V240 9999 // ////// 20/19 Q1018
04:30
V
21 °C 10 km+ - 240° 240° 4 kt METAR LFBY 090230Z AUTO 24004KT 9999 // ////// 21/19 Q1018
04:00
V
21 °C 10 km+ - 250° 250° 4 kt METAR LFBY 090200Z AUTO 25004KT 9999 // ////// 21/19 Q1018
03:30
V
20 °C 10 km+ - 230° 230° 4 kt METAR LFBY 090130Z AUTO 23004KT 200V260 9999 // ////// 20/18 Q1018
03:00
V
21 °C 10 km+ - 250° 250° 4 kt METAR LFBY 090100Z AUTO 25004KT 9999 // ////// 21/18 Q1018
02:30
V
21 °C 10 km+ - 270° 270° 4 kt METAR LFBY 090030Z AUTO 27004KT 230V290 9999 // ////// 21/18 Q1018
02:00
V
20 °C 10 km+ - 230° 230° 4 kt METAR LFBY 090000Z AUTO 23004KT 9999 // ////// 20/18 Q1018
01:30
V
21 °C 10 km+ - 240° 240° 3 kt METAR LFBY 082330Z AUTO 24003KT 210V280 9999 // ////// 21/18 Q1018
01:00
V
21 °C 10 km+ - 250° 250° 5 kt METAR LFBY 082300Z AUTO 25005KT 9999 // ////// 21/18 Q1018
00:30
V
21 °C 10 km+ - 250° 250° 5 kt METAR LFBY 082230Z AUTO 25005KT 220V290 9999 // ////// 21/18 Q1018
00:00
V
21 °C 10 km+ - 240° 240° 5 kt METAR LFBY 082200Z AUTO 24005KT 9999 // ////// 21/18 Q1017

8 de agosto de 2022

Hora Código Clima Temp. Visibilidade Tecto Vento METAR/SPECI
23:30
V
22 °C 10 km+ - 240° 240° 6 kt METAR LFBY 082130Z AUTO 24006KT 210V270 9999 // ////// 22/18 Q1017
23:00
V
22 °C 10 km+ - 260° 260° 5 kt METAR LFBY 082100Z AUTO 26005KT 230V310 9999 // ////// 22/18 Q1017
22:30
V
23 °C 10 km+ - 260° 260° 6 kt METAR LFBY 082030Z AUTO 26006KT 220V290 9999 // ////// 23/17 Q1017
22:00
V
25 °C 10 km+ - 250° 250° 5 kt METAR LFBY 082000Z AUTO 25005KT 230V290 9999 // ////// 25/15 Q1016
21:30
V
27 °C 10 km+ - 260° 260° 5 kt METAR LFBY 081930Z AUTO 26005KT 9999 // ////// 27/13 Q1016
21:00
V
29 °C 10 km+ - 260° 260° 4 kt METAR LFBY 081900Z AUTO 26004KT 9999 // ////// 29/12 Q1016
20:30
V
31 °C 10 km+ - 290° 290° 5 kt METAR LFBY 081830Z AUTO 29005KT 9999 // ////// 31/12 Q1016
20:00
V
32 °C 10 km+ - 290° 290° 5 kt METAR LFBY 081800Z AUTO 29005KT 260V320 9999 // ////// 32/12 Q1015
19:30
V
32 °C 10 km+ - 300° 300° 5 kt METAR LFBY 081730Z AUTO 30005KT 270V330 9999 // ////// 32/11 Q1015
19:00
V
32 °C 10 km+ - 310° 310° 6 kt METAR LFBY 081700Z AUTO 31006KT 270V340 9999 // ////// 32/11 Q1015
18:30
V
32 °C 10 km+ - 320° 320° 7 kt METAR LFBY 081630Z AUTO 32007KT 270V350 9999 // ////// 32/12 Q1015
18:00
V
32 °C 10 km+ - 280° 280° 8 kt METAR LFBY 081600Z AUTO 28008KT 250V330 9999 // ////// 32/15 Q1015
17:30
V
32 °C 10 km+ - 300° 300° 8 kt METAR LFBY 081530Z AUTO 30008KT 250V350 9999 // ////// 32/17 Q1015
17:00
V
32 °C 10 km+ - 320° 320° 8 kt METAR LFBY 081500Z AUTO 32008KT 270V020 9999 // ////// 32/19 Q1015
Dados mais antigos

Nós e terceiros acompanhamos seu comportamento na internet em nosso site com cookies. Se você continuar, nós assumimos que você concorda com nossa política de cookies. Saiba mais